sensor_id;sensor_type;location;lat;lon;timestamp;P1;durP1;ratioP1;P2;durP2;ratioP2
61085;SDS011;46967;48.876;2.136;2022-12-18T00:02:08;35.38;;;17.35;;
61085;SDS011;46967;48.876;2.136;2022-12-18T00:04:33;35.40;;;16.13;;
61085;SDS011;46967;48.876;2.136;2022-12-18T00:06:58;34.13;;;15.77;;
61085;SDS011;46967;48.876;2.136;2022-12-18T00:09:24;31.70;;;15.90;;
61085;SDS011;46967;48.876;2.136;2022-12-18T00:11:49;35.00;;;16.98;;
61085;SDS011;46967;48.876;2.136;2022-12-18T00:14:14;33.03;;;15.68;;
61085;SDS011;46967;48.876;2.136;2022-12-18T00:16:42;34.25;;;16.00;;
61085;SDS011;46967;48.876;2.136;2022-12-18T00:19:09;33.70;;;15.80;;
61085;SDS011;46967;48.876;2.136;2022-12-18T00:21:34;38.35;;;17.30;;
61085;SDS011;46967;48.876;2.136;2022-12-18T00:24:00;30.08;;;16.10;;
61085;SDS011;46967;48.876;2.136;2022-12-18T00:26:27;31.52;;;16.35;;
61085;SDS011;46967;48.876;2.136;2022-12-18T00:28:54;29.65;;;15.75;;
61085;SDS011;46967;48.876;2.136;2022-12-18T00:31:23;35.95;;;17.52;;
61085;SDS011;46967;48.876;2.136;2022-12-18T00:33:49;34.70;;;16.75;;
61085;SDS011;46967;48.876;2.136;2022-12-18T00:36:16;35.45;;;17.08;;
61085;SDS011;46967;48.876;2.136;2022-12-18T00:38:44;30.85;;;16.30;;
61085;SDS011;46967;48.876;2.136;2022-12-18T00:41:11;32.08;;;15.95;;
61085;SDS011;46967;48.876;2.136;2022-12-18T00:43:37;36.92;;;18.02;;
61085;SDS011;46967;48.876;2.136;2022-12-18T00:46:03;32.58;;;16.52;;
61085;SDS011;46967;48.876;2.136;2022-12-18T00:48:29;38.20;;;17.48;;
61085;SDS011;46967;48.876;2.136;2022-12-18T00:50:55;34.35;;;16.52;;
61085;SDS011;46967;48.876;2.136;2022-12-18T00:53:20;30.25;;;15.88;;
61085;SDS011;46967;48.876;2.136;2022-12-18T00:55:46;34.55;;;16.38;;
61085;SDS011;46967;48.876;2.136;2022-12-18T00:58:12;32.08;;;15.90;;
61085;SDS011;46967;48.876;2.136;2022-12-18T01:00:39;36.88;;;18.13;;
61085;SDS011;46967;48.876;2.136;2022-12-18T01:03:05;40.22;;;17.95;;
61085;SDS011;46967;48.876;2.136;2022-12-18T01:05:31;38.15;;;18.38;;
61085;SDS011;46967;48.876;2.136;2022-12-18T01:07:56;38.83;;;17.98;;
61085;SDS011;46967;48.876;2.136;2022-12-18T01:10:22;43.05;;;19.33;;
61085;SDS011;46967;48.876;2.136;2022-12-18T01:12:48;38.08;;;18.60;;
61085;SDS011;46967;48.876;2.136;2022-12-18T01:15:14;41.60;;;17.75;;
61085;SDS011;46967;48.876;2.136;2022-12-18T01:17:40;37.55;;;17.52;;
61085;SDS011;46967;48.876;2.136;2022-12-18T01:20:06;41.95;;;18.35;;
61085;SDS011;46967;48.876;2.136;2022-12-18T01:22:31;35.85;;;18.33;;
61085;SDS011;46967;48.876;2.136;2022-12-18T01:24:57;36.90;;;17.73;;
61085;SDS011;46967;48.876;2.136;2022-12-18T01:27:22;35.22;;;17.25;;
61085;SDS011;46967;48.876;2.136;2022-12-18T01:29:48;36.28;;;18.13;;
61085;SDS011;46967;48.876;2.136;2022-12-18T01:32:14;32.42;;;17.45;;
61085;SDS011;46967;48.876;2.136;2022-12-18T01:34:39;35.85;;;17.58;;
61085;SDS011;46967;48.876;2.136;2022-12-18T01:37:05;31.83;;;15.90;;
61085;SDS011;46967;48.876;2.136;2022-12-18T01:39:30;35.28;;;16.15;;
61085;SDS011;46967;48.876;2.136;2022-12-18T01:42:00;32.40;;;16.60;;
61085;SDS011;46967;48.876;2.136;2022-12-18T01:47:24;29.88;;;14.95;;
61085;SDS011;46967;48.876;2.136;2022-12-18T01:50:13;28.83;;;15.45;;
61085;SDS011;46967;48.876;2.136;2022-12-18T01:52:51;30.58;;;15.35;;
61085;SDS011;46967;48.876;2.136;2022-12-18T01:55:20;25.80;;;14.95;;
61085;SDS011;46967;48.876;2.136;2022-12-18T01:57:49;30.20;;;15.15;;
61085;SDS011;46967;48.876;2.136;2022-12-18T02:02:45;26.73;;;14.45;;
61085;SDS011;46967;48.876;2.136;2022-12-18T02:05:12;25.05;;;14.20;;
61085;SDS011;46967;48.876;2.136;2022-12-18T02:10:43;24.67;;;13.80;;
61085;SDS011;46967;48.876;2.136;2022-12-18T02:15:46;28.00;;;13.80;;
61085;SDS011;46967;48.876;2.136;2022-12-18T02:18:22;25.35;;;13.25;;
61085;SDS011;46967;48.876;2.136;2022-12-18T02:20:59;23.63;;;14.05;;
61085;SDS011;46967;48.876;2.136;2022-12-18T02:23:45;28.15;;;13.38;;
61085;SDS011;46967;48.876;2.136;2022-12-18T02:28:48;25.17;;;13.65;;
61085;SDS011;46967;48.876;2.136;2022-12-18T02:31:21;24.20;;;14.50;;
61085;SDS011;46967;48.876;2.136;2022-12-18T02:33:52;25.95;;;12.70;;
61085;SDS011;46967;48.876;2.136;2022-12-18T02:36:20;24.27;;;13.00;;
61085;SDS011;46967;48.876;2.136;2022-12-18T02:38:47;31.20;;;13.73;;
61085;SDS011;46967;48.876;2.136;2022-12-18T02:41:15;26.55;;;14.55;;
61085;SDS011;46967;48.876;2.136;2022-12-18T02:43:46;24.70;;;14.10;;
61085;SDS011;46967;48.876;2.136;2022-12-18T02:46:30;24.90;;;13.20;;
61085;SDS011;46967;48.876;2.136;2022-12-18T02:49:09;25.98;;;14.75;;
61085;SDS011;46967;48.876;2.136;2022-12-18T03:00:06;26.75;;;14.45;;
61085;SDS011;46967;48.876;2.136;2022-12-18T03:02:43;26.08;;;13.40;;
61085;SDS011;46967;48.876;2.136;2022-12-18T03:05:37;25.17;;;13.45;;
61085;SDS011;46967;48.876;2.136;2022-12-18T03:08:07;25.98;;;13.77;;
61085;SDS011;46967;48.876;2.136;2022-12-18T03:10:41;25.27;;;13.27;;
61085;SDS011;46967;48.876;2.136;2022-12-18T03:13:12;28.08;;;14.18;;
61085;SDS011;46967;48.876;2.136;2022-12-18T03:15:46;24.95;;;13.80;;
61085;SDS011;46967;48.876;2.136;2022-12-18T03:18:17;25.43;;;14.13;;
61085;SDS011;46967;48.876;2.136;2022-12-18T03:20:48;26.95;;;14.73;;
61085;SDS011;46967;48.876;2.136;2022-12-18T03:23:18;22.10;;;13.73;;
61085;SDS011;46967;48.876;2.136;2022-12-18T03:28:13;22.65;;;11.75;;
61085;SDS011;46967;48.876;2.136;2022-12-18T03:30:42;23.23;;;13.57;;
61085;SDS011;46967;48.876;2.136;2022-12-18T03:33:12;25.73;;;13.98;;
61085;SDS011;46967;48.876;2.136;2022-12-18T03:35:44;24.90;;;14.45;;
61085;SDS011;46967;48.876;2.136;2022-12-18T03:38:10;21.15;;;12.43;;
61085;SDS011;46967;48.876;2.136;2022-12-18T03:49:11;22.88;;;13.55;;
61085;SDS011;46967;48.876;2.136;2022-12-18T03:51:58;21.42;;;12.38;;
61085;SDS011;46967;48.876;2.136;2022-12-18T03:54:25;22.98;;;13.57;;
61085;SDS011;46967;48.876;2.136;2022-12-18T03:56:54;28.83;;;13.93;;
61085;SDS011;46967;48.876;2.136;2022-12-18T03:59:25;25.90;;;13.50;;
61085;SDS011;46967;48.876;2.136;2022-12-18T04:01:53;27.65;;;15.13;;
61085;SDS011;46967;48.876;2.136;2022-12-18T04:04:23;24.13;;;14.20;;
61085;SDS011;46967;48.876;2.136;2022-12-18T04:06:50;24.30;;;13.63;;
61085;SDS011;46967;48.876;2.136;2022-12-18T04:09:17;28.58;;;14.73;;
61085;SDS011;46967;48.876;2.136;2022-12-18T04:11:45;26.30;;;13.52;;
61085;SDS011;46967;48.876;2.136;2022-12-18T04:14:11;26.10;;;14.65;;
61085;SDS011;46967;48.876;2.136;2022-12-18T04:16:36;22.95;;;14.57;;
61085;SDS011;46967;48.876;2.136;2022-12-18T04:19:02;22.02;;;13.38;;
61085;SDS011;46967;48.876;2.136;2022-12-18T04:21:28;22.98;;;13.30;;
61085;SDS011;46967;48.876;2.136;2022-12-18T04:23:53;23.23;;;13.50;;
61085;SDS011;46967;48.876;2.136;2022-12-18T04:26:18;25.10;;;13.90;;
61085;SDS011;46967;48.876;2.136;2022-12-18T04:28:44;21.17;;;14.15;;
61085;SDS011;46967;48.876;2.136;2022-12-18T04:31:09;25.55;;;13.85;;
61085;SDS011;46967;48.876;2.136;2022-12-18T04:33:34;24.58;;;13.13;;
61085;SDS011;46967;48.876;2.136;2022-12-18T04:36:00;23.83;;;13.48;;
61085;SDS011;46967;48.876;2.136;2022-12-18T04:38:25;22.88;;;12.80;;
61085;SDS011;46967;48.876;2.136;2022-12-18T04:40:51;22.35;;;13.18;;
61085;SDS011;46967;48.876;2.136;2022-12-18T04:43:16;22.98;;;13.48;;
61085;SDS011;46967;48.876;2.136;2022-12-18T04:45:41;26.02;;;14.15;;
61085;SDS011;46967;48.876;2.136;2022-12-18T04:48:07;28.65;;;14.35;;
61085;SDS011;46967;48.876;2.136;2022-12-18T04:50:32;26.77;;;14.05;;
61085;SDS011;46967;48.876;2.136;2022-12-18T04:52:58;22.23;;;12.88;;
61085;SDS011;46967;48.876;2.136;2022-12-18T04:55:23;24.02;;;13.65;;
61085;SDS011;46967;48.876;2.136;2022-12-18T04:57:50;24.38;;;13.60;;
61085;SDS011;46967;48.876;2.136;2022-12-18T05:00:15;24.95;;;13.90;;
61085;SDS011;46967;48.876;2.136;2022-12-18T05:02:41;24.73;;;14.65;;
61085;SDS011;46967;48.876;2.136;2022-12-18T05:05:06;25.40;;;14.23;;
61085;SDS011;46967;48.876;2.136;2022-12-18T05:07:32;24.42;;;13.50;;
61085;SDS011;46967;48.876;2.136;2022-12-18T05:09:57;25.38;;;13.35;;
61085;SDS011;46967;48.876;2.136;2022-12-18T05:12:23;24.55;;;14.60;;
61085;SDS011;46967;48.876;2.136;2022-12-18T05:14:48;25.92;;;13.98;;
61085;SDS011;46967;48.876;2.136;2022-12-18T05:17:13;24.20;;;13.63;;
61085;SDS011;46967;48.876;2.136;2022-12-18T05:19:39;23.45;;;13.68;;
61085;SDS011;46967;48.876;2.136;2022-12-18T05:22:04;27.23;;;14.05;;
61085;SDS011;46967;48.876;2.136;2022-12-18T05:24:30;24.98;;;14.18;;
61085;SDS011;46967;48.876;2.136;2022-12-18T05:26:55;20.20;;;13.35;;
61085;SDS011;46967;48.876;2.136;2022-12-18T05:29:20;22.95;;;13.57;;
61085;SDS011;46967;48.876;2.136;2022-12-18T05:31:46;24.20;;;13.32;;
61085;SDS011;46967;48.876;2.136;2022-12-18T05:34:11;25.80;;;13.77;;
61085;SDS011;46967;48.876;2.136;2022-12-18T05:36:37;25.02;;;13.65;;
61085;SDS011;46967;48.876;2.136;2022-12-18T05:39:02;27.30;;;13.80;;
61085;SDS011;46967;48.876;2.136;2022-12-18T05:41:28;24.60;;;14.75;;
61085;SDS011;46967;48.876;2.136;2022-12-18T05:43:53;20.40;;;12.63;;
61085;SDS011;46967;48.876;2.136;2022-12-18T05:46:19;26.38;;;13.45;;
61085;SDS011;46967;48.876;2.136;2022-12-18T05:48:44;26.73;;;14.00;;
61085;SDS011;46967;48.876;2.136;2022-12-18T05:51:13;25.63;;;13.73;;
61085;SDS011;46967;48.876;2.136;2022-12-18T05:53:40;25.23;;;13.45;;
61085;SDS011;46967;48.876;2.136;2022-12-18T05:56:07;23.98;;;13.40;;
61085;SDS011;46967;48.876;2.136;2022-12-18T05:58:36;24.60;;;13.05;;
61085;SDS011;46967;48.876;2.136;2022-12-18T06:01:09;24.75;;;13.27;;
61085;SDS011;46967;48.876;2.136;2022-12-18T06:03:39;25.23;;;14.02;;
61085;SDS011;46967;48.876;2.136;2022-12-18T06:06:12;24.08;;;13.20;;
61085;SDS011;46967;48.876;2.136;2022-12-18T06:08:39;24.25;;;13.35;;
61085;SDS011;46967;48.876;2.136;2022-12-18T06:11:05;22.17;;;13.38;;
61085;SDS011;46967;48.876;2.136;2022-12-18T06:13:30;25.23;;;14.10;;
61085;SDS011;46967;48.876;2.136;2022-12-18T06:15:55;22.40;;;13.32;;
61085;SDS011;46967;48.876;2.136;2022-12-18T06:18:21;23.50;;;13.27;;
61085;SDS011;46967;48.876;2.136;2022-12-18T06:20:53;26.90;;;13.70;;
61085;SDS011;46967;48.876;2.136;2022-12-18T06:23:22;22.15;;;13.32;;
61085;SDS011;46967;48.876;2.136;2022-12-18T06:25:47;27.48;;;14.18;;
61085;SDS011;46967;48.876;2.136;2022-12-18T06:28:13;23.85;;;14.13;;
61085;SDS011;46967;48.876;2.136;2022-12-18T06:30:38;26.05;;;13.30;;
61085;SDS011;46967;48.876;2.136;2022-12-18T06:33:04;26.02;;;14.00;;
61085;SDS011;46967;48.876;2.136;2022-12-18T06:35:29;24.60;;;13.80;;
61085;SDS011;46967;48.876;2.136;2022-12-18T06:37:54;23.83;;;13.35;;
61085;SDS011;46967;48.876;2.136;2022-12-18T06:40:20;23.08;;;13.38;;
61085;SDS011;46967;48.876;2.136;2022-12-18T06:42:45;24.00;;;13.23;;
61085;SDS011;46967;48.876;2.136;2022-12-18T06:45:11;25.20;;;13.50;;
61085;SDS011;46967;48.876;2.136;2022-12-18T06:47:36;28.27;;;13.10;;
61085;SDS011;46967;48.876;2.136;2022-12-18T06:50:02;21.98;;;12.27;;
61085;SDS011;46967;48.876;2.136;2022-12-18T06:52:27;24.65;;;13.88;;
61085;SDS011;46967;48.876;2.136;2022-12-18T06:54:53;25.40;;;13.55;;
61085;SDS011;46967;48.876;2.136;2022-12-18T06:57:18;22.67;;;13.35;;
61085;SDS011;46967;48.876;2.136;2022-12-18T06:59:43;25.60;;;13.20;;
61085;SDS011;46967;48.876;2.136;2022-12-18T07:02:12;24.15;;;13.63;;
61085;SDS011;46967;48.876;2.136;2022-12-18T07:04:37;26.20;;;13.88;;
61085;SDS011;46967;48.876;2.136;2022-12-18T07:07:03;23.50;;;13.63;;
61085;SDS011;46967;48.876;2.136;2022-12-18T07:09:28;23.70;;;14.35;;
61085;SDS011;46967;48.876;2.136;2022-12-18T07:11:53;26.83;;;13.77;;
61085;SDS011;46967;48.876;2.136;2022-12-18T07:14:19;24.42;;;13.27;;
61085;SDS011;46967;48.876;2.136;2022-12-18T07:16:44;22.48;;;12.90;;
61085;SDS011;46967;48.876;2.136;2022-12-18T07:19:09;21.25;;;12.85;;
61085;SDS011;46967;48.876;2.136;2022-12-18T07:21:35;23.50;;;13.27;;
61085;SDS011;46967;48.876;2.136;2022-12-18T07:24:00;23.98;;;13.57;;
61085;SDS011;46967;48.876;2.136;2022-12-18T07:26:25;22.08;;;13.68;;
61085;SDS011;46967;48.876;2.136;2022-12-18T07:28:53;25.00;;;14.52;;
61085;SDS011;46967;48.876;2.136;2022-12-18T07:31:21;24.58;;;13.52;;
61085;SDS011;46967;48.876;2.136;2022-12-18T07:33:47;23.15;;;13.13;;
61085;SDS011;46967;48.876;2.136;2022-12-18T07:36:13;23.30;;;12.98;;
61085;SDS011;46967;48.876;2.136;2022-12-18T07:38:39;22.25;;;13.27;;
61085;SDS011;46967;48.876;2.136;2022-12-18T07:41:05;23.55;;;14.02;;
61085;SDS011;46967;48.876;2.136;2022-12-18T07:43:32;21.70;;;12.70;;
61085;SDS011;46967;48.876;2.136;2022-12-18T07:45:57;24.55;;;12.82;;
61085;SDS011;46967;48.876;2.136;2022-12-18T07:48:23;23.35;;;13.68;;
61085;SDS011;46967;48.876;2.136;2022-12-18T07:50:48;25.25;;;13.00;;
61085;SDS011;46967;48.876;2.136;2022-12-18T07:53:13;23.77;;;11.95;;
61085;SDS011;46967;48.876;2.136;2022-12-18T07:55:39;26.10;;;14.07;;
61085;SDS011;46967;48.876;2.136;2022-12-18T07:58:06;25.75;;;13.32;;
61085;SDS011;46967;48.876;2.136;2022-12-18T08:00:32;26.90;;;14.20;;
61085;SDS011;46967;48.876;2.136;2022-12-18T08:02:57;23.25;;;12.52;;
61085;SDS011;46967;48.876;2.136;2022-12-18T08:05:22;25.27;;;13.73;;
61085;SDS011;46967;48.876;2.136;2022-12-18T08:07:48;24.10;;;13.15;;
61085;SDS011;46967;48.876;2.136;2022-12-18T08:10:13;20.80;;;12.73;;
61085;SDS011;46967;48.876;2.136;2022-12-18T08:12:39;27.58;;;12.93;;
61085;SDS011;46967;48.876;2.136;2022-12-18T08:15:10;23.25;;;13.25;;
61085;SDS011;46967;48.876;2.136;2022-12-18T08:17:36;25.15;;;13.45;;
61085;SDS011;46967;48.876;2.136;2022-12-18T08:20:01;26.27;;;13.73;;
61085;SDS011;46967;48.876;2.136;2022-12-18T08:22:28;25.63;;;12.98;;
61085;SDS011;46967;48.876;2.136;2022-12-18T08:24:53;22.15;;;13.10;;
61085;SDS011;46967;48.876;2.136;2022-12-18T08:27:19;23.20;;;12.75;;
61085;SDS011;46967;48.876;2.136;2022-12-18T08:29:44;22.20;;;12.57;;
61085;SDS011;46967;48.876;2.136;2022-12-18T08:32:09;22.77;;;12.43;;
61085;SDS011;46967;48.876;2.136;2022-12-18T08:34:35;23.88;;;13.43;;
61085;SDS011;46967;48.876;2.136;2022-12-18T08:37:00;23.50;;;13.38;;
61085;SDS011;46967;48.876;2.136;2022-12-18T08:39:26;25.10;;;12.88;;
61085;SDS011;46967;48.876;2.136;2022-12-18T08:41:51;23.92;;;12.90;;
61085;SDS011;46967;48.876;2.136;2022-12-18T08:44:35;20.52;;;12.77;;
61085;SDS011;46967;48.876;2.136;2022-12-18T08:47:04;23.42;;;12.95;;
61085;SDS011;46967;48.876;2.136;2022-12-18T08:49:30;23.98;;;13.00;;
61085;SDS011;46967;48.876;2.136;2022-12-18T08:51:56;24.17;;;13.15;;
61085;SDS011;46967;48.876;2.136;2022-12-18T08:54:24;22.58;;;13.60;;
61085;SDS011;46967;48.876;2.136;2022-12-18T08:56:50;25.40;;;12.57;;
61085;SDS011;46967;48.876;2.136;2022-12-18T08:59:16;23.88;;;13.30;;
61085;SDS011;46967;48.876;2.136;2022-12-18T09:01:43;22.73;;;13.15;;
61085;SDS011;46967;48.876;2.136;2022-12-18T09:04:11;24.02;;;12.88;;
61085;SDS011;46967;48.876;2.136;2022-12-18T09:06:37;25.83;;;13.60;;
61085;SDS011;46967;48.876;2.136;2022-12-18T09:09:02;25.48;;;13.75;;
61085;SDS011;46967;48.876;2.136;2022-12-18T09:11:30;23.50;;;13.80;;
61085;SDS011;46967;48.876;2.136;2022-12-18T09:13:57;26.98;;;13.55;;
61085;SDS011;46967;48.876;2.136;2022-12-18T09:16:24;26.08;;;14.65;;
61085;SDS011;46967;48.876;2.136;2022-12-18T09:18:50;58.65;;;22.38;;
61085;SDS011;46967;48.876;2.136;2022-12-18T09:21:17;27.25;;;13.63;;
61085;SDS011;46967;48.876;2.136;2022-12-18T09:23:48;30.60;;;16.10;;
61085;SDS011;46967;48.876;2.136;2022-12-18T09:26:17;33.70;;;16.10;;
61085;SDS011;46967;48.876;2.136;2022-12-18T09:28:42;30.92;;;15.45;;
61085;SDS011;46967;48.876;2.136;2022-12-18T09:31:08;26.48;;;14.90;;
61085;SDS011;46967;48.876;2.136;2022-12-18T09:33:35;24.52;;;14.32;;
61085;SDS011;46967;48.876;2.136;2022-12-18T09:36:02;27.13;;;14.02;;
61085;SDS011;46967;48.876;2.136;2022-12-18T09:38:29;23.55;;;14.40;;
61085;SDS011;46967;48.876;2.136;2022-12-18T09:40:56;26.60;;;14.38;;
61085;SDS011;46967;48.876;2.136;2022-12-18T09:43:50;22.35;;;13.75;;
61085;SDS011;46967;48.876;2.136;2022-12-18T09:46:30;27.33;;;12.65;;
61085;SDS011;46967;48.876;2.136;2022-12-18T09:49:02;26.90;;;14.13;;
61085;SDS011;46967;48.876;2.136;2022-12-18T09:51:33;25.20;;;14.15;;
61085;SDS011;46967;48.876;2.136;2022-12-18T09:54:04;24.85;;;13.63;;
61085;SDS011;46967;48.876;2.136;2022-12-18T09:56:34;25.73;;;14.00;;
61085;SDS011;46967;48.876;2.136;2022-12-18T09:59:03;27.23;;;14.45;;
61085;SDS011;46967;48.876;2.136;2022-12-18T10:01:29;23.45;;;13.20;;
61085;SDS011;46967;48.876;2.136;2022-12-18T10:03:56;28.67;;;13.45;;
61085;SDS011;46967;48.876;2.136;2022-12-18T10:09:20;28.40;;;14.52;;
61085;SDS011;46967;48.876;2.136;2022-12-18T10:14:43;24.88;;;14.05;;
61085;SDS011;46967;48.876;2.136;2022-12-18T10:17:22;28.45;;;13.15;;
61085;SDS011;46967;48.876;2.136;2022-12-18T10:20:02;26.13;;;13.88;;
61085;SDS011;46967;48.876;2.136;2022-12-18T10:22:40;23.45;;;12.65;;
61085;SDS011;46967;48.876;2.136;2022-12-18T10:25:20;27.15;;;12.95;;
61085;SDS011;46967;48.876;2.136;2022-12-18T10:27:47;24.52;;;14.00;;
61085;SDS011;46967;48.876;2.136;2022-12-18T10:30:17;28.02;;;13.75;;
61085;SDS011;46967;48.876;2.136;2022-12-18T10:32:45;26.85;;;13.20;;
61085;SDS011;46967;48.876;2.136;2022-12-18T10:35:26;25.52;;;13.48;;
61085;SDS011;46967;48.876;2.136;2022-12-18T10:40:52;23.67;;;13.57;;
61085;SDS011;46967;48.876;2.136;2022-12-18T10:43:39;26.08;;;13.70;;
61085;SDS011;46967;48.876;2.136;2022-12-18T10:48:39;22.98;;;13.40;;
61085;SDS011;46967;48.876;2.136;2022-12-18T10:51:19;25.73;;;14.70;;
61085;SDS011;46967;48.876;2.136;2022-12-18T10:54:02;24.42;;;13.38;;
61085;SDS011;46967;48.876;2.136;2022-12-18T10:56:30;25.92;;;14.73;;
61085;SDS011;46967;48.876;2.136;2022-12-18T10:58:59;26.88;;;14.52;;
61085;SDS011;46967;48.876;2.136;2022-12-18T11:04:25;25.85;;;14.30;;
61085;SDS011;46967;48.876;2.136;2022-12-18T11:09:22;23.48;;;13.50;;
61085;SDS011;46967;48.876;2.136;2022-12-18T11:11:50;25.75;;;13.93;;
61085;SDS011;46967;48.876;2.136;2022-12-18T11:14:20;25.90;;;14.63;;
61085;SDS011;46967;48.876;2.136;2022-12-18T11:16:49;25.95;;;13.98;;
61085;SDS011;46967;48.876;2.136;2022-12-18T11:21:54;25.40;;;13.57;;
61085;SDS011;46967;48.876;2.136;2022-12-18T11:24:32;27.02;;;14.70;;
61085;SDS011;46967;48.876;2.136;2022-12-18T11:27:00;24.65;;;13.85;;
61085;SDS011;46967;48.876;2.136;2022-12-18T11:29:34;28.45;;;13.70;;
61085;SDS011;46967;48.876;2.136;2022-12-18T11:34:59;23.45;;;13.07;;
61085;SDS011;46967;48.876;2.136;2022-12-18T11:37:29;24.23;;;12.98;;
61085;SDS011;46967;48.876;2.136;2022-12-18T11:40:03;24.48;;;14.15;;
61085;SDS011;46967;48.876;2.136;2022-12-18T11:42:41;25.77;;;13.32;;
61085;SDS011;46967;48.876;2.136;2022-12-18T11:50:26;22.85;;;12.93;;
61085;SDS011;46967;48.876;2.136;2022-12-18T11:52:56;22.95;;;13.18;;
61085;SDS011;46967;48.876;2.136;2022-12-18T12:00:47;25.38;;;13.80;;
61085;SDS011;46967;48.876;2.136;2022-12-18T12:03:27;22.02;;;12.70;;
61085;SDS011;46967;48.876;2.136;2022-12-18T12:09:22;25.13;;;12.80;;
61085;SDS011;46967;48.876;2.136;2022-12-18T12:14:55;25.33;;;12.90;;
61085;SDS011;46967;48.876;2.136;2022-12-18T12:29:01;24.83;;;13.95;;
61085;SDS011;46967;48.876;2.136;2022-12-18T12:36:39;27.58;;;14.77;;
61085;SDS011;46967;48.876;2.136;2022-12-18T12:39:08;26.15;;;15.38;;
61085;SDS011;46967;48.876;2.136;2022-12-18T12:41:41;28.20;;;15.75;;
61085;SDS011;46967;48.876;2.136;2022-12-18T12:44:29;26.67;;;15.55;;
61085;SDS011;46967;48.876;2.136;2022-12-18T12:47:00;32.65;;;16.38;;
61085;SDS011;46967;48.876;2.136;2022-12-18T12:49:32;27.48;;;15.52;;
61085;SDS011;46967;48.876;2.136;2022-12-18T12:54:32;26.90;;;15.18;;
61085;SDS011;46967;48.876;2.136;2022-12-18T12:57:09;29.08;;;14.95;;
61085;SDS011;46967;48.876;2.136;2022-12-18T13:05:40;31.95;;;16.67;;
61085;SDS011;46967;48.876;2.136;2022-12-18T13:08:25;31.92;;;17.15;;
61085;SDS011;46967;48.876;2.136;2022-12-18T13:10:55;35.05;;;16.83;;
61085;SDS011;46967;48.876;2.136;2022-12-18T13:13:48;30.23;;;15.90;;
61085;SDS011;46967;48.876;2.136;2022-12-18T13:16:17;27.10;;;16.10;;
61085;SDS011;46967;48.876;2.136;2022-12-18T13:18:51;28.23;;;16.25;;
61085;SDS011;46967;48.876;2.136;2022-12-18T13:21:32;27.25;;;15.77;;
61085;SDS011;46967;48.876;2.136;2022-12-18T13:26:57;29.05;;;15.55;;
61085;SDS011;46967;48.876;2.136;2022-12-18T13:29:40;35.45;;;17.15;;
61085;SDS011;46967;48.876;2.136;2022-12-18T13:32:21;32.33;;;16.90;;
61085;SDS011;46967;48.876;2.136;2022-12-18T13:34:48;30.67;;;17.00;;
61085;SDS011;46967;48.876;2.136;2022-12-18T13:39:56;33.70;;;18.85;;
61085;SDS011;46967;48.876;2.136;2022-12-18T13:45:59;31.65;;;16.08;;
61085;SDS011;46967;48.876;2.136;2022-12-18T13:48:26;26.23;;;15.02;;
61085;SDS011;46967;48.876;2.136;2022-12-18T13:51:00;26.25;;;14.93;;
61085;SDS011;46967;48.876;2.136;2022-12-18T13:53:51;23.70;;;14.50;;
61085;SDS011;46967;48.876;2.136;2022-12-18T13:56:16;34.15;;;18.05;;
61085;SDS011;46967;48.876;2.136;2022-12-18T13:58:42;34.65;;;18.80;;
61085;SDS011;46967;48.876;2.136;2022-12-18T14:01:23;37.78;;;20.88;;
61085;SDS011;46967;48.876;2.136;2022-12-18T14:03:49;39.17;;;20.58;;
61085;SDS011;46967;48.876;2.136;2022-12-18T14:06:15;44.45;;;23.67;;
61085;SDS011;46967;48.876;2.136;2022-12-18T14:08:41;37.83;;;21.20;;
61085;SDS011;46967;48.876;2.136;2022-12-18T14:11:17;35.42;;;18.65;;
61085;SDS011;46967;48.876;2.136;2022-12-18T14:16:14;35.60;;;19.58;;
61085;SDS011;46967;48.876;2.136;2022-12-18T14:18:43;34.83;;;19.33;;
61085;SDS011;46967;48.876;2.136;2022-12-18T14:21:21;35.90;;;18.17;;
61085;SDS011;46967;48.876;2.136;2022-12-18T14:24:02;33.35;;;20.08;;
61085;SDS011;46967;48.876;2.136;2022-12-18T14:26:48;32.38;;;19.00;;
61085;SDS011;46967;48.876;2.136;2022-12-18T14:29:25;34.17;;;17.35;;
61085;SDS011;46967;48.876;2.136;2022-12-18T14:32:09;37.78;;;20.05;;
61085;SDS011;46967;48.876;2.136;2022-12-18T14:34:39;35.22;;;18.85;;
61085;SDS011;46967;48.876;2.136;2022-12-18T14:37:07;35.70;;;18.17;;
61085;SDS011;46967;48.876;2.136;2022-12-18T14:39:35;38.13;;;20.88;;
61085;SDS011;46967;48.876;2.136;2022-12-18T14:42:00;32.58;;;18.65;;
61085;SDS011;46967;48.876;2.136;2022-12-18T14:44:26;35.13;;;19.20;;
61085;SDS011;46967;48.876;2.136;2022-12-18T14:46:53;48.78;;;24.92;;
61085;SDS011;46967;48.876;2.136;2022-12-18T14:49:26;39.88;;;22.10;;
61085;SDS011;46967;48.876;2.136;2022-12-18T14:52:00;42.65;;;22.00;;
61085;SDS011;46967;48.876;2.136;2022-12-18T14:54:28;39.30;;;21.55;;
61085;SDS011;46967;48.876;2.136;2022-12-18T14:59:26;39.70;;;20.98;;
61085;SDS011;46967;48.876;2.136;2022-12-18T15:06:50;33.05;;;19.10;;
61085;SDS011;46967;48.876;2.136;2022-12-18T15:09:28;31.92;;;16.58;;
61085;SDS011;46967;48.876;2.136;2022-12-18T15:11:57;33.78;;;18.27;;
61085;SDS011;46967;48.876;2.136;2022-12-18T15:16:58;34.55;;;18.50;;
61085;SDS011;46967;48.876;2.136;2022-12-18T15:19:32;33.53;;;19.02;;
61085;SDS011;46967;48.876;2.136;2022-12-18T15:22:01;26.77;;;15.73;;
61085;SDS011;46967;48.876;2.136;2022-12-18T15:24:27;30.20;;;18.75;;
61085;SDS011;46967;48.876;2.136;2022-12-18T15:26:56;32.40;;;17.45;;
61085;SDS011;46967;48.876;2.136;2022-12-18T15:29:21;32.80;;;17.23;;
61085;SDS011;46967;48.876;2.136;2022-12-18T15:32:00;30.35;;;17.83;;
61085;SDS011;46967;48.876;2.136;2022-12-18T15:34:28;32.58;;;17.52;;
61085;SDS011;46967;48.876;2.136;2022-12-18T15:36:53;31.40;;;18.42;;
61085;SDS011;46967;48.876;2.136;2022-12-18T15:39:19;26.15;;;16.60;;
61085;SDS011;46967;48.876;2.136;2022-12-18T15:41:44;31.08;;;15.73;;
61085;SDS011;46967;48.876;2.136;2022-12-18T15:44:30;25.05;;;14.50;;
61085;SDS011;46967;48.876;2.136;2022-12-18T15:46:55;23.98;;;15.25;;
61085;SDS011;46967;48.876;2.136;2022-12-18T15:49:21;23.52;;;14.10;;
61085;SDS011;46967;48.876;2.136;2022-12-18T15:51:48;23.45;;;13.60;;
61085;SDS011;46967;48.876;2.136;2022-12-18T15:54:18;22.35;;;12.57;;
61085;SDS011;46967;48.876;2.136;2022-12-18T15:57:04;27.30;;;13.60;;
61085;SDS011;46967;48.876;2.136;2022-12-18T15:59:47;24.77;;;14.43;;
61085;SDS011;46967;48.876;2.136;2022-12-18T16:02:14;26.15;;;14.63;;
61085;SDS011;46967;48.876;2.136;2022-12-18T16:04:42;25.45;;;14.52;;
61085;SDS011;46967;48.876;2.136;2022-12-18T16:07:07;27.08;;;15.13;;
61085;SDS011;46967;48.876;2.136;2022-12-18T16:09:34;30.38;;;16.05;;
61085;SDS011;46967;48.876;2.136;2022-12-18T16:11:59;28.73;;;16.48;;
61085;SDS011;46967;48.876;2.136;2022-12-18T16:14:26;29.38;;;17.08;;
61085;SDS011;46967;48.876;2.136;2022-12-18T16:16:57;33.22;;;18.05;;
61085;SDS011;46967;48.876;2.136;2022-12-18T16:19:24;38.92;;;19.10;;
61085;SDS011;46967;48.876;2.136;2022-12-18T16:21:50;36.42;;;20.77;;
61085;SDS011;46967;48.876;2.136;2022-12-18T16:26:44;30.90;;;16.80;;
61085;SDS011;46967;48.876;2.136;2022-12-18T16:29:10;36.70;;;19.15;;
61085;SDS011;46967;48.876;2.136;2022-12-18T16:31:36;41.38;;;20.73;;
61085;SDS011;46967;48.876;2.136;2022-12-18T16:36:55;23.73;;;13.57;;